Aeroporto :
LOGIN :

Iscrizione | Disclaimer

   EN    FR    IT 

 










Sommario :    VFR   VFR Marginale   IFR   IFR Intensivo   IFR Molto Intensivo
Visibilità : 
Base nubi : 
>= 8 km
>= 3000ft
5 / 8 km
1000 / 3000 ft
1500m / 5 km
500 / 1000 ft
800 / 1500m
200 / 500 ft
< 800m
< 200 ft
Simboli :   Temporali  Nebbia  Neve Forte  Precipitazioni Forti  Vento > 20 kt
SIGMETs :   Varie  Temporali  Ghiacco  Turbolenza  Onda orograficha  Ceneri Vulcaniche







- Altitudine del aeroporto : 2510 ft
- Codice IATA : LOO


DAUL - Laghouat

ULTIMO METAR :
  • 220300Z 04006KT 8000 SCT033 16/14 Q1017

METARs OBSOLETI :
  • 220200Z 06010KT 8000 SCT033 16/14 Q1018
  • 220100Z 04008KT 8000 SCT033 15/13 Q1017

TAF TAF DAUL
Valido dal 22 a 03 ore il 22 a 12 ore UTC


220200Z 2203/2212 06010KT 8000 SCT033
PROB30
TEMPO 2203/2206 06015G25KT 5000 -TSRA FEW030CB
Nessun NOTAM noto per questo aeroporto.
2 SIGMETs conosciuti per la FIR Alger (DAAA) :
 
Temporali affogati
DAAA SIGMET 12 VALID 220300/220500 DAMM
DAAA ALGER FIR EMBD TS OBS WI N3625 E00555 - N3446 E00548 - N3343 E00525 - N3348 E00408 - N3521 E00442 - N3626 E00440 - N3625 E00555 TOP FL400 MOV NE NC=
Temporali affogati
COR DAAA SIGMET 1 VALID 220300/220500 DAMM
DAAA ALGER FIR EMBD TS OBS WI N3625 E00555 - N3446 E00548 - N3343 E00525 - N3348 E00408 - N3521 E00442 - N3626 E00440 - N3625 E00555 TOP FL400 MOV NE NC=



MetMap, La meteo Aeronautica in un colpo d'occhio ! - Copyright ORBIFLY Dicembre 2007 - Disclaimer

ORBIFLY MET'MAP TEAM :

Programmazione e sviluppo : Alexandra Zaïnal
Concezione e sviluppo : Baudouin d'Aumeries
Co-Programmazione e sviluppo : Marc-Olivier Méhu
Supporto tecnico e logistico : Manuel Goepfert
Aiuto per la traduzione : Arnaldo La Scala

Contatto : metmap@orbifly.com




FONTI E CREDITI :

   NOAA